createdAt,value
2019-01-23T00:01:24.197Z,99347.45
2019-01-23T00:03:54.342Z,99352.92
2019-01-23T00:06:24.195Z,99336.25
2019-01-23T00:08:53.766Z,99340.94
2019-01-23T00:11:24.339Z,99341.97
2019-01-23T00:13:54.843Z,99344.44
2019-01-23T00:16:24.341Z,99325.13
2019-01-23T00:18:53.834Z,99326.04
2019-01-23T00:21:23.800Z,99326.04
2019-01-23T00:23:53.402Z,99331.09
2019-01-23T00:26:22.904Z,99322.55
2019-01-23T00:28:52.435Z,99326.45
2019-01-23T00:31:22.198Z,99325.30
2019-01-23T00:33:51.719Z,99268.80
2019-01-23T00:36:21.239Z,99282.82
2019-01-23T00:38:51.359Z,99312.05
2019-01-23T00:41:23.552Z,99315.66
2019-01-23T00:43:53.201Z,99320.02
2019-01-23T00:46:22.848Z,99319.58
2019-01-23T00:48:55.049Z,99307.17
2019-01-23T00:51:24.794Z,99307.27
2019-01-23T00:53:55.090Z,99301.11
2019-01-23T00:56:25.008Z,99301.05
2019-01-23T00:58:54.964Z,99300.25
2019-01-23T01:01:25.024Z,99313.73
2019-01-23T01:03:54.665Z,99307.00
2019-01-23T01:06:24.435Z,99311.62
2019-01-23T01:08:53.955Z,99313.48
2019-01-23T01:11:23.675Z,99306.42
2019-01-23T01:13:53.582Z,99304.42
2019-01-23T01:16:23.177Z,99304.61
2019-01-23T01:18:52.889Z,99299.51
2019-01-23T01:21:22.556Z,99298.75
2019-01-23T01:23:52.169Z,99292.45
2019-01-23T01:26:21.734Z,99298.52
2019-01-23T01:28:55.996Z,99310.84
2019-01-23T01:31:22.484Z,99306.89
2019-01-23T01:33:52.003Z,99287.06
2019-01-23T01:36:23.385Z,99308.83
2019-01-23T01:38:53.067Z,99305.27
2019-01-23T01:41:22.825Z,99307.42
2019-01-23T01:43:52.663Z,99306.70
2019-01-23T01:46:22.306Z,99302.16
2019-01-23T01:48:51.802Z,99298.88
2019-01-23T01:51:21.414Z,99299.94
2019-01-23T01:53:50.947Z,99302.55
2019-01-23T01:56:20.550Z,99298.88
2019-01-23T01:58:50.644Z,99293.33
2019-01-23T02:01:20.579Z,99298.67
2019-01-23T02:03:50.116Z,99293.20
2019-01-23T02:06:19.688Z,99289.03
2019-01-23T02:08:49.573Z,99285.23
2019-01-23T02:11:21.663Z,99291.58
2019-01-23T02:13:51.658Z,99285.45
2019-01-23T02:16:21.182Z,99277.95
2019-01-23T02:18:51.159Z,99279.41
2019-01-23T02:21:20.688Z,99274.10
2019-01-23T02:23:50.229Z,99272.16
2019-01-23T02:26:19.916Z,99260.00
2019-01-23T02:28:49.539Z,99201.63
2019-01-23T02:31:19.101Z,99266.06
2019-01-23T02:33:48.888Z,99268.83
2019-01-23T02:36:18.432Z,99266.77
2019-01-23T02:38:47.967Z,99263.34
2019-01-23T02:41:17.469Z,99265.19
2019-01-23T02:43:47.047Z,99256.85
2019-01-23T02:46:16.959Z,99252.37
2019-01-23T02:48:46.493Z,99247.95
2019-01-23T02:51:16.499Z,99248.88
2019-01-23T02:53:46.115Z,99245.66
2019-01-23T02:56:15.773Z,99252.08
2019-01-23T02:58:45.316Z,99241.20
2019-01-23T03:01:15.045Z,99245.89
2019-01-23T03:03:44.577Z,99248.02
2019-01-23T03:06:14.429Z,99247.17
2019-01-23T03:08:44.314Z,99245.75
2019-01-23T03:11:13.821Z,99245.81
2019-01-23T03:13:43.383Z,99243.74
2019-01-23T03:16:13.415Z,99238.45
2019-01-23T03:18:43.352Z,99245.05
2019-01-23T03:21:12.936Z,99239.24
2019-01-23T03:23:42.585Z,99236.56
2019-01-23T03:26:12.971Z,99229.08
2019-01-23T03:28:43.107Z,99243.58
2019-01-23T03:31:12.945Z,99243.02
2019-01-23T03:33:42.527Z,99245.66
2019-01-23T03:36:12.087Z,99248.28
2019-01-23T03:38:41.663Z,99249.98
2019-01-23T03:41:11.165Z,99250.00
2019-01-23T03:43:40.802Z,99252.93
2019-01-23T03:46:12.516Z,99250.30
2019-01-23T03:48:42.371Z,99249.35
2019-01-23T03:51:11.857Z,99250.92
2019-01-23T03:53:41.386Z,99251.22
2019-01-23T03:56:11.226Z,99249.86
2019-01-23T03:58:41.108Z,99255.74
2019-01-23T04:01:10.611Z,99256.19
2019-01-23T04:03:40.236Z,99258.00
2019-01-23T04:06:13.222Z,99250.09
2019-01-23T04:08:43.770Z,99248.77
2019-01-23T04:11:13.306Z,99243.70
2019-01-23T04:13:42.812Z,99223.98
2019-01-23T04:16:12.495Z,99247.33
2019-01-23T04:18:42.018Z,99246.39
2019-01-23T04:21:11.542Z,99249.74
2019-01-23T04:23:41.058Z,99251.31
2019-01-23T04:26:14.270Z,99257.07
2019-01-23T04:28:44.488Z,99252.90
2019-01-23T04:31:14.029Z,99243.55
2019-01-23T04:33:43.607Z,99244.27
2019-01-23T04:36:13.137Z,99250.70
2019-01-23T04:38:42.652Z,99240.23
2019-01-23T04:41:12.248Z,99253.16
2019-01-23T04:43:43.076Z,99248.89
2019-01-23T04:46:14.658Z,99247.72
2019-01-23T04:48:47.475Z,99250.52
2019-01-23T04:51:36.235Z,99251.03
2019-01-23T04:54:09.149Z,99241.12
2019-01-23T04:56:38.700Z,99248.84
2019-01-23T04:59:08.280Z,99240.55
2019-01-23T05:01:38.092Z,99241.05
2019-01-23T05:04:08.303Z,99235.25
2019-01-23T05:06:41.315Z,99238.07
2019-01-23T05:09:11.084Z,99238.25
2019-01-23T05:11:40.752Z,99240.55
2019-01-23T05:14:10.422Z,99242.61
2019-01-23T05:16:40.698Z,99238.07
2019-01-23T05:19:10.522Z,99236.00
2019-01-23T05:21:40.747Z,99235.52
2019-01-23T05:24:10.811Z,99231.81
2019-01-23T05:26:40.641Z,99231.73
2019-01-23T05:29:11.192Z,99245.53
2019-01-23T05:31:40.676Z,99242.75
2019-01-23T05:34:10.682Z,99243.23
2019-01-23T05:36:40.725Z,99247.56
2019-01-23T05:39:10.930Z,99245.67
2019-01-23T05:41:40.841Z,99250.53
2019-01-23T05:44:10.958Z,99251.25
2019-01-23T05:46:42.570Z,99250.30
2019-01-23T05:49:12.158Z,99215.31
2019-01-23T05:51:41.711Z,99239.55
2019-01-23T05:54:11.284Z,99247.55
2019-01-23T05:56:41.714Z,99243.48
2019-01-23T05:59:11.520Z,99254.05
2019-01-23T06:01:41.433Z,99247.78
2019-01-23T06:04:11.530Z,99246.59
2019-01-23T06:06:41.839Z,99243.38
2019-01-23T06:09:11.485Z,99249.95
2019-01-23T06:11:41.263Z,99260.20
2019-01-23T06:14:12.727Z,99255.39
2019-01-23T06:16:42.218Z,99256.39
2019-01-23T06:19:12.247Z,99255.62
2019-01-23T06:21:42.017Z,99255.27
2019-01-23T06:24:11.634Z,99255.29
2019-01-23T06:26:42.128Z,99249.45
2019-01-23T06:29:11.640Z,99238.66
2019-01-23T06:31:41.810Z,99252.63
2019-01-23T06:34:11.725Z,99246.23
2019-01-23T06:36:42.356Z,99249.53
2019-01-23T06:39:11.962Z,99251.73
2019-01-23T06:41:42.008Z,99254.50
2019-01-23T06:44:13.847Z,99256.07
2019-01-23T06:46:43.856Z,99260.54
2019-01-23T06:49:13.683Z,99265.36
2019-01-23T06:51:43.519Z,99261.91
2019-01-23T06:54:13.131Z,99267.56
2019-01-23T06:56:42.895Z,99274.43
2019-01-23T06:59:12.399Z,99273.83
2019-01-23T07:01:42.281Z,99283.20
2019-01-23T07:04:12.127Z,99280.20
2019-01-23T07:06:42.161Z,99271.78
2019-01-23T07:09:12.766Z,99278.42
2019-01-23T07:11:42.270Z,99269.09
2019-01-23T07:14:12.747Z,99272.94
2019-01-23T07:16:42.360Z,99271.61
2019-01-23T07:19:12.404Z,99271.61
2019-01-23T07:21:42.665Z,99260.89
2019-01-23T07:24:13.142Z,99272.30
2019-01-23T07:26:42.759Z,99270.03
2019-01-23T07:29:12.623Z,99262.77
2019-01-23T07:31:42.694Z,99258.60
2019-01-23T07:34:13.352Z,99267.28
2019-01-23T07:36:42.888Z,99261.87
2019-01-23T07:39:12.804Z,99268.17
2019-01-23T07:41:42.820Z,99272.23
2019-01-23T07:44:12.803Z,99275.06
2019-01-23T07:46:43.065Z,99268.72
2019-01-23T07:49:12.979Z,99269.61
2019-01-23T07:51:43.504Z,99275.10
2019-01-23T07:54:13.595Z,99279.81
2019-01-23T07:56:43.158Z,99280.88
2019-01-23T07:59:13.117Z,99273.81
2019-01-23T08:01:43.335Z,99274.17
2019-01-23T08:04:13.436Z,99275.95
2019-01-23T08:06:43.342Z,99269.30
2019-01-23T08:09:13.302Z,99269.30
2019-01-23T08:11:43.579Z,99284.09
2019-01-23T08:14:13.294Z,99269.16
2019-01-23T08:16:43.482Z,99275.65
2019-01-23T08:19:13.400Z,99276.54
2019-01-23T08:21:43.686Z,99278.33
2019-01-23T08:24:13.664Z,99290.59
2019-01-23T08:26:43.502Z,99284.95
2019-01-23T08:29:13.715Z,99285.34
2019-01-23T08:31:43.623Z,99282.73
2019-01-23T08:34:13.657Z,99288.28
2019-01-23T08:36:43.676Z,99284.47
2019-01-23T08:39:13.921Z,99282.39
2019-01-23T08:41:43.995Z,99276.05
2019-01-23T08:44:13.783Z,99277.15
2019-01-23T08:46:43.806Z,99276.08
2019-01-23T08:49:14.285Z,99279.70
2019-01-23T08:51:44.226Z,99285.91
2019-01-23T08:54:14.350Z,99283.38
2019-01-23T08:56:44.247Z,99284.86
2019-01-23T08:59:14.959Z,99277.19
2019-01-23T09:01:44.505Z,99276.30
2019-01-23T09:04:14.587Z,99282.44
2019-01-23T09:06:44.610Z,99276.24
2019-01-23T09:09:14.489Z,99275.59
2019-01-23T09:11:44.196Z,99279.72
2019-01-23T09:14:14.578Z,99283.27
2019-01-23T09:16:45.143Z,99281.89
2019-01-23T09:19:14.702Z,99296.84
2019-01-23T09:21:44.380Z,99294.81
2019-01-23T09:24:14.547Z,99294.08
2019-01-23T09:26:44.885Z,99296.89
2019-01-23T09:29:14.538Z,99290.78
2019-01-23T09:32:19.911Z,99298.91
2019-01-23T09:35:27.568Z,99294.50
2019-01-23T09:38:19.020Z,99295.37
2019-01-23T09:41:04.853Z,99292.23
2019-01-23T09:44:09.189Z,99298.88
2019-01-23T09:47:05.008Z,99292.41
2019-01-23T09:50:10.564Z,99290.53
2019-01-23T09:53:13.975Z,99300.17
2019-01-23T09:55:43.497Z,99296.09
2019-01-23T09:58:13.055Z,99299.27
2019-01-23T10:00:42.588Z,99295.25
2019-01-23T10:03:12.529Z,99298.88
2019-01-23T10:05:42.341Z,99301.95
2019-01-23T10:08:11.863Z,99306.59
2019-01-23T10:10:41.469Z,99302.63
2019-01-23T10:13:11.064Z,99304.19
2019-01-23T10:15:43.883Z,99306.11
2019-01-23T10:18:13.774Z,99300.20
2019-01-23T10:20:43.638Z,99297.84
2019-01-23T10:23:13.447Z,99292.20
2019-01-23T10:25:43.031Z,99290.27
2019-01-23T10:28:12.538Z,99293.22
2019-01-23T10:30:42.044Z,99291.43
2019-01-23T10:33:11.898Z,99293.17
2019-01-23T10:35:41.961Z,99292.62
2019-01-23T10:38:11.586Z,99293.55
2019-01-23T10:40:41.446Z,99290.48
2019-01-23T10:43:11.041Z,99292.34
2019-01-23T10:45:40.534Z,99283.87
2019-01-23T10:48:10.037Z,99292.08
2019-01-23T10:50:40.183Z,99282.13
2019-01-23T10:53:10.133Z,99288.71
2019-01-23T10:55:39.680Z,99275.42
2019-01-23T10:58:09.576Z,99279.55
2019-01-23T11:00:39.453Z,99278.36
2019-01-23T11:03:10.164Z,99281.34
2019-01-23T11:05:39.815Z,99279.49
2019-01-23T11:08:09.419Z,99274.97
2019-01-23T11:10:40.278Z,99273.25
2019-01-23T11:13:10.105Z,99271.68
2019-01-23T11:15:39.599Z,99263.76
2019-01-23T11:18:09.176Z,99269.63
2019-01-23T11:20:39.041Z,99265.16
2019-01-23T11:23:08.913Z,99265.93
2019-01-23T11:25:38.758Z,99266.61
2019-01-23T11:28:08.304Z,99266.77
2019-01-23T11:30:38.283Z,99270.66
2019-01-23T11:33:07.824Z,99270.80
2019-01-23T11:35:37.339Z,99264.74
2019-01-23T11:38:07.124Z,99263.12
2019-01-23T11:40:36.634Z,99267.33
2019-01-23T11:43:06.135Z,99270.60
2019-01-23T11:45:35.672Z,99271.98
2019-01-23T11:48:05.615Z,99269.02
2019-01-23T11:50:35.236Z,99274.95
2019-01-23T11:53:05.416Z,99264.78
2019-01-23T11:55:35.485Z,99271.36
2019-01-23T11:58:05.401Z,99268.09
2019-01-23T12:00:36.241Z,99259.95
2019-01-23T12:03:06.566Z,99264.66
2019-01-23T12:05:37.086Z,99273.13
2019-01-23T12:08:06.800Z,99267.97
2019-01-23T12:10:36.658Z,99272.55
2019-01-23T12:13:06.245Z,99267.94
2019-01-23T12:15:40.850Z,99267.48
2019-01-23T12:18:07.478Z,99267.06
2019-01-23T12:20:37.074Z,99266.47
2019-01-23T12:23:06.829Z,99273.54
2019-01-23T12:25:36.903Z,99265.53
2019-01-23T12:28:06.656Z,99267.97
2019-01-23T12:30:36.364Z,99270.77
2019-01-23T12:33:05.889Z,99272.97
2019-01-23T12:35:35.420Z,99270.02
2019-01-23T12:38:05.447Z,99265.41
2019-01-23T12:40:35.189Z,99263.90
2019-01-23T12:43:05.096Z,99265.91
2019-01-23T12:45:34.998Z,99264.38
2019-01-23T12:48:04.726Z,99262.73
2019-01-23T12:50:34.291Z,99264.13
2019-01-23T12:53:03.870Z,99266.10
2019-01-23T12:55:33.775Z,99267.85
2019-01-23T12:58:03.370Z,99268.43
2019-01-23T13:00:33.270Z,99268.66
2019-01-23T13:03:02.997Z,99274.51
2019-01-23T13:05:32.907Z,99268.58
2019-01-23T13:08:02.427Z,99270.41
2019-01-23T13:10:32.362Z,99266.66
2019-01-23T13:13:02.013Z,99266.86
2019-01-23T13:15:31.663Z,99267.96
2019-01-23T13:18:01.407Z,99271.77
2019-01-23T13:20:31.489Z,99271.31
2019-01-23T13:23:01.077Z,99272.88
2019-01-23T13:25:31.172Z,99273.69
2019-01-23T13:28:02.250Z,99268.09
2019-01-23T13:30:31.797Z,99271.02
2019-01-23T13:33:01.762Z,99277.14
2019-01-23T13:35:34.154Z,99281.34
2019-01-23T13:38:04.780Z,99281.70
2019-01-23T13:40:35.997Z,99279.50
2019-01-23T13:43:06.828Z,99282.30
2019-01-23T13:45:36.888Z,99284.19
2019-01-23T13:48:08.121Z,99285.46
2019-01-23T13:50:37.727Z,99278.25
2019-01-23T13:53:07.310Z,99291.16
2019-01-23T13:55:37.179Z,99296.82
2019-01-23T13:58:07.726Z,99296.41
2019-01-23T14:00:40.243Z,99293.98
2019-01-23T14:03:10.883Z,99296.05
2019-01-23T14:05:40.970Z,99295.41
2019-01-23T14:08:11.028Z,99291.08
2019-01-23T14:10:40.559Z,99298.63
2019-01-23T14:13:10.220Z,99295.06
2019-01-23T14:15:40.555Z,99298.24
2019-01-23T14:18:10.189Z,99308.34
2019-01-23T14:20:39.771Z,99305.83
2019-01-23T14:23:09.358Z,99304.44
2019-01-23T14:25:38.905Z,99317.66
2019-01-23T14:28:09.281Z,99312.98
2019-01-23T14:30:42.203Z,99319.88
2019-01-23T14:33:11.751Z,99320.78
2019-01-23T14:35:43.252Z,99324.00
2019-01-23T14:38:12.938Z,99332.63
2019-01-23T14:40:42.514Z,99334.52
2019-01-23T14:43:12.192Z,99339.84
2019-01-23T14:45:41.939Z,99335.51
2019-01-23T14:48:11.819Z,99344.58
2019-01-23T14:50:42.515Z,99354.92
2019-01-23T14:53:12.462Z,99354.05
2019-01-23T14:55:42.357Z,99351.15
2019-01-23T14:58:11.977Z,99356.98
2019-01-23T15:00:41.906Z,99358.98
2019-01-23T15:03:11.478Z,99352.73
2019-01-23T15:05:41.392Z,99365.48
2019-01-23T15:08:11.228Z,99368.66
2019-01-23T15:10:40.748Z,99335.66
2019-01-23T15:13:10.322Z,99363.21
2019-01-23T15:15:39.945Z,99369.23
2019-01-23T15:18:09.560Z,99374.41
2019-01-23T15:20:40.573Z,99368.32
2019-01-23T15:23:10.399Z,99366.58
2019-01-23T15:25:40.099Z,99371.73
2019-01-23T15:28:09.633Z,99380.47
2019-01-23T15:30:39.421Z,99380.41
2019-01-23T15:33:08.966Z,99388.63
2019-01-23T15:35:38.440Z,99382.28
2019-01-23T15:38:07.944Z,99387.58
2019-01-23T15:40:38.536Z,99388.17
2019-01-23T15:43:08.366Z,99383.25
2019-01-23T15:45:38.322Z,99384.76
2019-01-23T15:48:07.881Z,99389.77
2019-01-23T15:50:37.409Z,99393.20
2019-01-23T15:53:06.969Z,99396.19
2019-01-23T15:55:36.607Z,99396.89
2019-01-23T15:58:06.233Z,99397.45
2019-01-23T16:00:35.905Z,99400.78
2019-01-23T16:03:05.953Z,99396.12
2019-01-23T16:05:35.502Z,99409.56
2019-01-23T16:08:05.138Z,99404.56
2019-01-23T16:10:34.785Z,99404.89
2019-01-23T16:13:04.463Z,99409.75
2019-01-23T16:15:35.436Z,99414.63
2019-01-23T16:18:05.478Z,99412.53
2019-01-23T16:20:35.010Z,99408.72
2019-01-23T16:23:06.453Z,99416.51
2019-01-23T16:25:36.159Z,99421.25
2019-01-23T16:28:07.084Z,99415.27
2019-01-23T16:30:38.449Z,99421.88
2019-01-23T16:33:08.709Z,99424.38
2019-01-23T16:35:39.099Z,99423.60
2019-01-23T16:38:10.207Z,99423.60
2019-01-23T16:40:40.394Z,99430.09
2019-01-23T16:43:10.853Z,99423.91
2019-01-23T16:45:40.773Z,99426.98
2019-01-23T16:48:10.478Z,99425.62
2019-01-23T16:50:40.048Z,99424.25
2019-01-23T16:53:09.933Z,99426.73
2019-01-23T16:55:39.568Z,99433.23
2019-01-23T16:58:09.731Z,99430.16
2019-01-23T17:00:39.305Z,99438.33
2019-01-23T17:03:08.881Z,99429.21
2019-01-23T17:05:38.524Z,99440.36
2019-01-23T17:08:08.882Z,99438.02
2019-01-23T17:10:38.498Z,99446.07
2019-01-23T17:13:08.339Z,99445.62
2019-01-23T17:15:37.972Z,99438.27
2019-01-23T17:18:07.599Z,99452.30
2019-01-23T17:20:43.224Z,99449.41
2019-01-23T17:23:12.836Z,99454.14
2019-01-23T17:25:42.936Z,99456.19
2019-01-23T17:28:14.820Z,99457.36
2019-01-23T17:30:44.497Z,99459.96
2019-01-23T17:33:14.004Z,99465.07
2019-01-23T17:35:43.971Z,99464.05
2019-01-23T17:38:13.499Z,99471.16
2019-01-23T17:40:43.454Z,99471.38
2019-01-23T17:43:14.040Z,99477.91
2019-01-23T17:45:43.668Z,99477.39
2019-01-23T17:48:14.067Z,99475.95
2019-01-23T17:50:43.719Z,99485.61
2019-01-23T17:53:14.889Z,99479.73
2019-01-23T17:55:44.540Z,99493.69
2019-01-23T17:58:15.216Z,99494.64
2019-01-23T18:00:52.077Z,99496.63
2019-01-23T18:03:21.626Z,99510.79
2019-01-23T18:05:51.443Z,99511.44
2019-01-23T18:08:21.887Z,99518.00
2019-01-23T18:10:51.517Z,99518.23
2019-01-23T18:13:20.990Z,99521.59
2019-01-23T18:15:50.692Z,99521.98
2019-01-23T18:18:20.256Z,99534.00
2019-01-23T18:20:50.827Z,99531.44
2019-01-23T18:23:20.444Z,99537.36
2019-01-23T18:25:50.388Z,99542.69
2019-01-23T18:28:19.907Z,99540.98
2019-01-23T18:30:53.582Z,99543.75
2019-01-23T18:33:31.846Z,99542.41
2019-01-23T18:36:33.167Z,99546.14
2019-01-23T18:39:37.475Z,99550.73
2019-01-23T18:42:49.774Z,99552.81
2019-01-23T18:45:35.738Z,99564.81
2019-01-23T18:48:33.853Z,99561.34
2019-01-23T18:51:34.231Z,99567.27
2019-01-23T18:54:03.930Z,99568.63
2019-01-23T18:56:33.645Z,99577.75
2019-01-23T18:59:03.434Z,99581.48
2019-01-23T19:01:33.054Z,99580.65
2019-01-23T19:04:02.636Z,99586.41
2019-01-23T19:06:32.590Z,99591.04
2019-01-23T19:09:05.359Z,99592.33
2019-01-23T19:11:34.986Z,99597.31
2019-01-23T19:14:04.653Z,99594.17
2019-01-23T19:16:34.295Z,99599.03
2019-01-23T19:19:04.344Z,99607.92
2019-01-23T19:21:33.917Z,99601.28
2019-01-23T19:24:03.632Z,99602.88
2019-01-23T19:26:33.582Z,99597.84
2019-01-23T19:29:04.025Z,99604.36
2019-01-23T19:31:33.587Z,99607.88
2019-01-23T19:34:03.174Z,99611.76
2019-01-23T19:36:33.800Z,99616.08
2019-01-23T19:39:05.028Z,99617.52
2019-01-23T19:41:34.765Z,99619.42
2019-01-23T19:44:05.179Z,99622.13
2019-01-23T19:46:35.012Z,99623.05
2019-01-23T19:49:04.914Z,99623.83
2019-01-23T19:51:35.793Z,99626.27
2019-01-23T19:54:06.001Z,99630.58
2019-01-23T19:56:35.700Z,99639.52
2019-01-23T19:59:05.280Z,99635.43
2019-01-23T20:01:35.032Z,99649.73
2019-01-23T20:04:05.355Z,99646.78
2019-01-23T20:06:34.980Z,99650.90
2019-01-23T20:09:07.810Z,99660.81
2019-01-23T20:11:37.915Z,99661.41
2019-01-23T20:14:07.969Z,99664.97
2019-01-23T20:16:37.569Z,99672.64
2019-01-23T20:19:15.282Z,99673.21
2019-01-23T20:21:45.159Z,99673.11
2019-01-23T20:24:14.843Z,99675.69
2019-01-23T20:26:45.036Z,99675.31
2019-01-23T20:29:14.990Z,99682.67
2019-01-23T20:31:44.600Z,99686.50
2019-01-23T20:34:14.261Z,99688.20
2019-01-23T20:36:44.339Z,99684.58
2019-01-23T20:39:14.069Z,99690.20
2019-01-23T20:41:43.718Z,99696.17
2019-01-23T20:44:13.287Z,99703.60
2019-01-23T20:46:42.889Z,99702.72
2019-01-23T20:49:12.809Z,99710.63
2019-01-23T20:51:42.863Z,99706.71
2019-01-23T20:54:12.440Z,99713.41
2019-01-23T20:56:42.522Z,99721.41
2019-01-23T20:59:12.249Z,99723.59
2019-01-23T21:01:41.755Z,99728.09
2019-01-23T21:04:11.682Z,99734.84
2019-01-23T21:06:41.732Z,99738.72
2019-01-23T21:09:11.349Z,99734.38
2019-01-23T21:11:41.191Z,99740.73
2019-01-23T21:14:10.740Z,99743.04
2019-01-23T21:16:40.275Z,99743.50
2019-01-23T21:19:10.159Z,99739.39
2019-01-23T21:21:40.095Z,99747.67
2019-01-23T21:24:09.938Z,99752.32
2019-01-23T21:26:39.792Z,99752.06
2019-01-23T21:29:10.294Z,99758.84
2019-01-23T21:31:39.841Z,99766.68
2019-01-23T21:34:09.382Z,99768.84
2019-01-23T21:36:38.929Z,99765.97
2019-01-23T21:39:09.079Z,99771.06
2019-01-23T21:41:38.649Z,99772.77
2019-01-23T21:44:08.144Z,99773.65
2019-01-23T21:46:37.929Z,99772.35
2019-01-23T21:49:07.580Z,99774.13
2019-01-23T21:51:37.251Z,99780.95
2019-01-23T21:54:07.116Z,99781.31
2019-01-23T21:56:37.287Z,99782.19
2019-01-23T21:59:06.890Z,99789.47
2019-01-23T22:01:36.749Z,99784.34
2019-01-23T22:04:06.721Z,99789.02
2019-01-23T22:06:36.446Z,99794.71
2019-01-23T22:09:07.685Z,99796.86
2019-01-23T22:11:43.233Z,99802.82
2019-01-23T22:14:08.616Z,99807.56
2019-01-23T22:16:38.136Z,99810.97
2019-01-23T22:19:07.689Z,99809.70
2019-01-23T22:21:37.227Z,99811.84
2019-01-23T22:24:06.738Z,99822.44
2019-01-23T22:26:36.257Z,99819.09
2019-01-23T22:29:05.760Z,99822.14
2019-01-23T22:31:35.597Z,99820.42
2019-01-23T22:34:05.264Z,99825.95
2019-01-23T22:36:34.788Z,99824.60
2019-01-23T22:39:06.933Z,99829.44
2019-01-23T22:41:37.514Z,99832.02
2019-01-23T22:44:07.005Z,99832.44
2019-01-23T22:46:36.931Z,99833.73
2019-01-23T22:49:06.779Z,99843.15
2019-01-23T22:51:36.685Z,99832.89
2019-01-23T22:54:06.373Z,99838.86
2019-01-23T22:56:36.138Z,99840.55
2019-01-23T22:59:06.000Z,99848.63
2019-01-23T23:01:35.558Z,99845.27
2019-01-23T23:04:05.381Z,99833.70
2019-01-23T23:06:35.279Z,99849.97
2019-01-23T23:09:09.489Z,99863.69
2019-01-23T23:11:39.080Z,99869.27
2019-01-23T23:14:08.608Z,99867.16
2019-01-23T23:16:38.215Z,99871.00
2019-01-23T23:19:07.759Z,99872.25
2019-01-23T23:21:37.389Z,99876.14
2019-01-23T23:24:07.024Z,99879.14
2019-01-23T23:26:36.827Z,99887.72
2019-01-23T23:29:06.417Z,99889.78
2019-01-23T23:31:36.008Z,99891.56
2019-01-23T23:34:09.921Z,99890.30
2019-01-23T23:36:37.316Z,99888.97
2019-01-23T23:39:09.176Z,99899.73
2019-01-23T23:41:38.973Z,99896.70
2019-01-23T23:44:08.634Z,99898.49
2019-01-23T23:46:38.141Z,99904.43
2019-01-23T23:49:07.770Z,99908.66
2019-01-23T23:51:37.434Z,99907.48
2019-01-23T23:54:07.019Z,99901.88
2019-01-23T23:56:36.603Z,99918.20
2019-01-23T23:59:06.107Z,99906.20
